Time;durP1;ratioP1;P1;durP2;ratioP2;P2;SDS_P1;SDS_P2;PMS_P1;PMS_P2;Temp;Humidity;BMP_temperature;BMP_pressure;BME280_temperature;BME280_humidity;BME280_pressure;Samples;Min_cycle;Max_cycle;Signal;HPM_P1;HPM_P2
2023/08/04 00:03:02;;;;;;;23.20;13.77;;;26.00;91.30;;;;;;5091594;28;20047;-67
2023/08/04 00:06:10;;;;;;;21.63;13.18;;;26.00;91.10;;;;;;5091560;28;20054;-67
2023/08/04 00:09:14;;;;;;;26.15;12.43;;;26.10;91.10;;;;;;5091871;28;20047;-68
2023/08/04 00:12:17;;;;;;;20.73;12.85;;;26.10;91.10;;;;;;5091700;28;20051;-67
2023/08/04 00:15:21;;;;;;;27.95;12.45;;;26.10;91.00;;;;;;5091763;28;20043;-67
2023/08/04 00:18:25;;;;;;;23.27;11.77;;;26.20;91.00;;;;;;5091393;28;20043;-67
2023/08/04 00:21:29;;;;;;;23.67;12.05;;;26.20;91.00;;;;;;5091549;28;20039;-67
2023/08/04 00:24:33;;;;;;;18.02;10.52;;;26.10;90.80;;;;;;5091316;28;20047;-67
2023/08/04 00:27:37;;;;;;;22.10;11.00;;;26.10;90.80;;;;;;5091424;28;20246;-66
2023/08/04 00:30:41;;;;;;;23.02;10.38;;;26.00;90.90;;;;;;5091486;28;20051;-66
2023/08/04 00:33:46;;;;;;;17.85;9.68;;;25.90;90.70;;;;;;5091406;28;20047;-67
2023/08/04 00:36:50;;;;;;;20.83;9.93;;;25.70;91.10;;;;;;5091094;28;20043;-67
2023/08/04 00:39:53;;;;;;;21.02;10.32;;;25.70;91.30;;;;;;5091247;28;20117;-66
2023/08/04 00:42:57;;;;;;;17.45;11.20;;;25.70;91.30;;;;;;5090112;28;20705;-67
2023/08/04 00:46:01;;;;;;;23.00;12.55;;;25.60;91.40;;;;;;5091006;28;20047;-67
2023/08/04 00:49:07;;;;;;;23.13;13.68;;;25.60;91.70;;;;;;5090803;28;20043;-67
2023/08/04 00:52:11;;;;;;;24.67;13.70;;;25.60;91.60;;;;;;5090127;28;20043;-67
2023/08/04 00:55:16;;;;;;;28.08;15.10;;;25.60;91.80;;;;;;5091145;28;20043;-67
2023/08/04 00:58:20;;;;;;;22.15;15.05;;;25.60;91.90;;;;;;5090739;28;20043;-67
2023/08/04 01:01:24;;;;;;;25.60;16.23;;;25.60;92.10;;;;;;5090831;28;20059;-67
2023/08/04 01:04:29;;;;;;;25.00;17.33;;;25.60;92.10;;;;;;5090583;28;20071;-67
2023/08/04 01:07:42;;;;;;;28.42;18.20;;;25.60;92.10;;;;;;5089966;28;20051;-67
2023/08/04 01:10:55;;;;;;;29.92;18.45;;;25.60;92.20;;;;;;5090128;28;20039;-66
2023/08/04 01:14:01;;;;;;;30.65;17.90;;;25.60;92.40;;;;;;5090662;28;20214;-67
2023/08/04 01:17:25;;;;;;;28.20;17.25;;;25.60;92.50;;;;;;5090853;28;20047;-67
2023/08/04 01:20:29;;;;;;;33.20;18.00;;;25.60;92.30;;;;;;5090563;28;20050;-67
2023/08/04 01:23:33;;;;;;;24.02;15.93;;;25.70;92.20;;;;;;5089616;28;20040;-67
2023/08/04 01:26:44;;;;;;;22.98;15.35;;;25.60;92.00;;;;;;5089384;28;20177;-67
2023/08/04 01:29:49;;;;;;;21.80;14.52;;;25.60;91.70;;;;;;5090561;28;20051;-67
2023/08/04 01:32:53;;;;;;;23.73;14.20;;;25.50;91.70;;;;;;5090734;28;20051;-67
2023/08/04 01:35:57;;;;;;;29.27;14.38;;;25.40;91.50;;;;;;5089936;28;20499;-66
2023/08/04 01:39:00;;;;;;;20.88;12.80;;;25.40;91.60;;;;;;5090425;28;20527;-66
2023/08/04 01:42:05;;;;;;;17.60;12.70;;;25.20;91.40;;;;;;5090460;28;20043;-67
2023/08/04 01:45:09;;;;;;;17.77;12.02;;;24.90;92.10;;;;;;5089770;28;20403;-67
2023/08/04 01:48:13;;;;;;;17.38;11.38;;;25.00;92.10;;;;;;5090693;28;20047;-67
2023/08/04 01:51:17;;;;;;;19.80;12.00;;;25.10;91.80;;;;;;5089673;28;20051;-67
2023/08/04 01:54:21;;;;;;;20.35;11.07;;;25.10;91.70;;;;;;5089496;28;20039;-67
2023/08/04 01:57:24;;;;;;;20.45;11.32;;;25.10;91.60;;;;;;5089622;28;20059;-67
2023/08/04 02:00:28;;;;;;;18.00;10.80;;;25.10;91.80;;;;;;5089610;28;20047;-66
2023/08/04 02:03:34;;;;;;;17.17;11.00;;;25.00;91.90;;;;;;5092970;28;20067;-67
2023/08/04 02:06:38;;;;;;;16.98;10.90;;;25.10;91.80;;;;;;5093884;28;20074;-67
2023/08/04 02:09:42;;;;;;;21.95;11.88;;;25.10;91.90;;;;;;5093136;28;20039;-67
2023/08/04 02:12:46;;;;;;;18.92;11.52;;;25.10;92.00;;;;;;5093035;28;20403;-66
2023/08/04 02:15:50;;;;;;;19.15;12.68;;;25.10;92.10;;;;;;5093912;28;20047;-66
2023/08/04 02:19:05;;;;;;;20.98;12.85;;;25.20;92.20;;;;;;5093062;28;20106;-66
2023/08/04 02:22:08;;;;;;;21.48;15.13;;;25.20;92.40;;;;;;5094355;28;20047;-66
2023/08/04 02:25:13;;;;;;;25.58;13.00;;;25.20;92.40;;;;;;5093234;28;20055;-66
2023/08/04 02:28:16;;;;;;;34.80;13.30;;;25.10;92.30;;;;;;5093792;28;20059;-67
2023/08/04 02:31:23;;;;;;;22.65;14.13;;;25.10;92.50;;;;;;5093636;28;20102;-67
2023/08/04 02:34:27;;;;;;;28.23;15.02;;;25.00;92.70;;;;;;5093713;28;20380;-67
2023/08/04 02:37:31;;;;;;;24.95;14.02;;;26.70;93.20;;;;;;5093547;28;20510;-67
2023/08/04 02:40:39;;;;;;;21.08;12.98;;;24.80;92.90;;;;;;5093452;28;20035;-67
2023/08/04 02:43:43;;;;;;;19.00;11.95;;;24.80;92.90;;;;;;5092181;28;20047;-67
2023/08/04 02:46:47;;;;;;;28.45;14.73;;;24.90;92.90;;;;;;5093298;28;20098;-66
2023/08/04 02:49:50;;;;;;;23.00;13.30;;;24.90;92.90;;;;;;5093226;28;20043;-67
2023/08/04 02:52:55;;;;;;;24.00;14.30;;;24.90;92.70;;;;;;5092812;28;20069;-66
2023/08/04 02:55:59;;;;;;;28.10;14.32;;;24.90;93.20;;;;;;5091994;28;20526;-67
2023/08/04 02:59:03;;;;;;;27.10;14.73;;;24.80;93.00;;;;;;5093060;28;20047;-66
2023/08/04 03:02:07;;;;;;;28.02;13.73;;;24.70;93.30;;;;;;5092633;28;20047;-66
2023/08/04 03:05:11;;;;;;;18.33;11.30;;;24.60;93.70;;;;;;5092724;28;20058;-66
2023/08/04 03:08:15;;;;;;;18.92;11.50;;;24.60;93.90;;;;;;5092728;28;20507;-67
2023/08/04 03:11:18;;;;;;;20.65;10.82;;;24.50;94.10;;;;;;5092640;28;20062;-67
2023/08/04 03:14:22;;;;;;;15.20;10.02;;;24.60;93.80;;;;;;5092479;28;20047;-67
2023/08/04 03:17:28;;;;;;;21.20;10.23;;;24.70;93.60;;;;;;5092506;28;20036;-67
2023/08/04 03:20:37;;;;;;;19.75;10.65;;;24.70;93.30;;;;;;5092298;28;20424;-67
2023/08/04 03:23:41;;;;;;;22.00;9.68;;;24.70;93.20;;;;;;5092444;28;20047;-67
2023/08/04 03:26:44;;;;;;;16.92;9.57;;;24.70;93.10;;;;;;5092176;28;20055;-67
2023/08/04 03:29:48;;;;;;;21.27;9.73;;;24.80;93.10;;;;;;5092338;28;20059;-66
2023/08/04 03:32:52;;;;;;;19.02;8.60;;;24.80;93.00;;;;;;5092415;28;20051;-66
2023/08/04 03:35:56;;;;;;;25.65;8.77;;;24.80;93.10;;;;;;5092210;28;20400;-66
2023/08/04 03:39:00;;;;;;;12.18;8.13;;;24.70;92.90;;;;;;5092304;28;20046;-67
2023/08/04 03:42:05;;;;;;;13.70;8.23;;;24.60;93.20;;;;;;5092306;28;20070;-67
2023/08/04 03:45:09;;;;;;;14.27;7.13;;;24.40;92.90;;;;;;5091996;28;20070;-67
2023/08/04 03:48:13;;;;;;;14.77;7.55;;;24.40;93.40;;;;;;5092143;28;20051;-67
2023/08/04 03:51:17;;;;;;;14.70;6.93;;;24.40;93.10;;;;;;5091849;28;20039;-67
2023/08/04 03:54:21;;;;;;;16.67;7.63;;;24.40;93.20;;;;;;5092229;28;20067;-67
2023/08/04 03:57:25;;;;;;;13.55;7.95;;;24.30;93.20;;;;;;5091800;28;20047;-67
2023/08/04 04:00:31;;;;;;;19.73;9.25;;;24.20;93.20;;;;;;5091697;28;20039;-67
2023/08/04 04:03:35;;;;;;;19.55;9.13;;;24.30;93.30;;;;;;5092306;28;20043;-67
2023/08/04 04:06:38;;;;;;;16.05;9.70;;;24.20;93.10;;;;;;5091577;28;20085;-68
2023/08/04 04:09:42;;;;;;;19.50;10.68;;;24.20;93.30;;;;;;5091818;28;20055;-68
2023/08/04 04:12:46;;;;;;;22.77;11.95;;;24.20;93.20;;;;;;5091730;28;20043;-67
2023/08/04 04:15:50;;;;;;;24.55;11.05;;;24.20;93.20;;;;;;5091776;28;20043;-67
2023/08/04 04:18:54;;;;;;;49.90;22.00;;;24.20;93.10;;;;;;5091406;28;20137;-67
2023/08/04 04:21:58;;;;;;;56.55;31.52;;;23.70;94.00;;;;;;5091567;28;20039;-68
2023/08/04 04:25:02;;;;;;;53.00;32.83;;;23.60;94.20;;;;;;5090222;28;20407;-67
2023/08/04 04:28:07;;;;;;;65.28;39.13;;;23.60;94.70;;;;;;5091544;28;20059;-68
2023/08/04 04:31:11;;;;;;;77.00;43.63;;;23.70;94.60;;;;;;5091101;28;20039;-67
2023/08/04 04:34:15;;;;;;;64.70;35.10;;;23.80;94.50;;;;;;5091598;28;20507;-67
2023/08/04 04:37:18;;;;;;;48.55;29.90;;;23.90;94.30;;;;;;5091143;28;20035;-66
2023/08/04 04:40:22;;;;;;;45.72;26.42;;;23.90;94.50;;;;;;5091019;28;20404;-66
2023/08/04 04:43:27;;;;;;;55.70;22.25;;;24.20;94.40;;;;;;5091296;28;20403;-67
2023/08/04 04:46:31;;;;;;;34.47;18.08;;;24.60;93.70;;;;;;5090881;28;20055;-66
2023/08/04 04:49:35;;;;;;;31.13;15.45;;;25.20;93.00;;;;;;5091197;28;20062;-67
2023/08/04 04:52:39;;;;;;;34.97;15.25;;;25.50;92.70;;;;;;5090951;28;20047;-65
2023/08/04 04:55:43;;;;;;;38.47;15.68;;;26.10;91.80;;;;;;5090971;28;20392;-68
2023/08/04 04:58:47;;;;;;;44.47;15.68;;;27.10;90.40;;;;;;5090744;28;20507;-66
2023/08/04 05:01:51;;;;;;;52.88;14.48;;;27.70;88.50;;;;;;5091014;28;20047;-67
2023/08/04 05:04:55;;;;;;;27.38;12.48;;;27.50;89.10;;;;;;5090799;28;20593;-66
2023/08/04 05:07:59;;;;;;;35.97;13.63;;;27.80;88.30;;;;;;5090784;28;20066;-68
2023/08/04 05:11:03;;;;;;;31.25;12.13;;;28.10;87.60;;;;;;5090710;28;20514;-67
2023/08/04 05:14:07;;;;;;;24.63;11.30;;;28.60;86.70;;;;;;5090593;28;20494;-68
2023/08/04 05:17:12;;;;;;;22.55;10.93;;;29.30;85.30;;;;;;5090800;28;20043;-68
2023/08/04 05:20:16;;;;;;;24.42;10.27;;;29.90;84.00;;;;;;5090499;28;20062;-67
2023/08/04 05:23:22;;;;;;;25.77;11.40;;;29.90;83.50;;;;;;5090525;28;20035;-66
2023/08/04 05:26:26;;;;;;;20.10;9.88;;;29.90;83.50;;;;;;5090281;28;20070;-68
2023/08/04 05:29:30;;;;;;;26.42;9.15;;;29.50;85.30;;;;;;5090723;28;20038;-67
2023/08/04 05:32:34;;;;;;;30.02;9.50;;;29.10;86.00;;;;;;5090472;28;20043;-68
2023/08/04 05:35:38;;;;;;;23.33;9.00;;;29.00;85.80;;;;;;5090763;28;20039;-68
2023/08/04 05:38:44;;;;;;;24.17;10.43;;;29.00;86.20;;;;;;5094281;28;20043;-66
2023/08/04 05:41:49;;;;;;;30.60;10.07;;;29.00;86.70;;;;;;5094715;28;20039;-66
2023/08/04 05:44:53;;;;;;;25.85;9.95;;;28.80;87.00;;;;;;5094293;28;20047;-67
2023/08/04 05:47:57;;;;;;;29.55;10.73;;;28.70;87.60;;;;;;5094261;28;20077;-67
2023/08/04 05:51:01;;;;;;;23.17;9.27;;;28.80;87.60;;;;;;5094310;28;20051;-65
2023/08/04 05:54:05;;;;;;;27.30;10.20;;;29.00;87.20;;;;;;5094488;28;20421;-66
2023/08/04 05:57:09;;;;;;;20.35;9.10;;;29.00;87.50;;;;;;5094484;28;20043;-67
2023/08/04 06:00:13;;;;;;;18.55;8.18;;;28.90;88.00;;;;;;5094549;28;20067;-67
2023/08/04 06:03:17;;;;;;;17.35;8.57;;;29.40;87.00;;;;;;5093918;28;20039;-67
2023/08/04 06:06:21;;;;;;;18.30;9.25;;;29.80;86.30;;;;;;5093714;28;20059;-66
2023/08/04 06:09:25;;;;;;;15.80;9.18;;;30.60;84.50;;;;;;5094087;28;20043;-67
2023/08/04 06:12:30;;;;;;;20.00;8.52;;;31.10;83.10;;;;;;5093167;28;20051;-68
2023/08/04 06:15:34;;;;;;;19.90;9.10;;;31.60;82.30;;;;;;5093847;28;20043;-67
2023/08/04 06:18:38;;;;;;;20.98;8.75;;;31.90;81.30;;;;;;5093701;28;20405;-67
2023/08/04 06:21:42;;;;;;;24.85;7.13;;;32.40;80.70;;;;;;5093418;28;20043;-66
2023/08/04 06:24:46;;;;;;;18.15;7.63;;;32.20;80.60;;;;;;5092333;28;20362;-68
2023/08/04 06:27:50;;;;;;;21.60;7.10;;;31.50;82.60;;;;;;5093315;28;20047;-67
2023/08/04 06:30:54;;;;;;;20.13;7.32;;;31.20;83.30;;;;;;5092904;28;20217;-66
2023/08/04 06:33:58;;;;;;;20.63;6.30;;;30.90;84.00;;;;;;5093344;28;20047;-68
2023/08/04 06:37:02;;;;;;;18.27;6.43;;;30.70;85.00;;;;;;5093156;28;20047;-68
2023/08/04 06:40:06;;;;;;;18.15;6.07;;;30.80;84.30;;;;;;5093545;28;20035;-69
2023/08/04 06:43:10;;;;;;;14.48;5.80;;;31.00;84.60;;;;;;5093324;28;20039;-68
2023/08/04 06:46:14;;;;;;;14.43;7.47;;;31.10;84.50;;;;;;5093110;28;20051;-67
2023/08/04 06:49:18;;;;;;;18.40;5.78;;;31.30;84.50;;;;;;5092467;28;20047;-67
2023/08/04 06:52:21;;;;;;;18.83;5.93;;;31.40;84.40;;;;;;5093048;28;20039;-67
2023/08/04 06:55:25;;;;;;;17.00;5.28;;;31.60;84.40;;;;;;5092249;28;20066;-67
2023/08/04 06:58:29;;;;;;;20.40;5.65;;;31.70;84.60;;;;;;5093011;28;20043;-65
2023/08/04 07:01:33;;;;;;;14.48;4.90;;;31.70;84.60;;;;;;5092954;28;20051;-67
2023/08/04 07:04:37;;;;;;;13.95;5.60;;;31.80;84.50;;;;;;5092876;28;20044;-68
2023/08/04 07:07:42;;;;;;;10.65;4.68;;;32.10;84.40;;;;;;5092646;28;20074;-67
2023/08/04 07:10:46;;;;;;;13.82;4.90;;;32.10;83.50;;;;;;5092632;28;20058;-68
2023/08/04 07:13:50;;;;;;;9.90;4.40;;;32.00;84.20;;;;;;5092625;28;20039;-67
2023/08/04 07:16:54;;;;;;;11.95;4.35;;;32.20;84.00;;;;;;5092620;28;20593;-67
2023/08/04 07:19:58;;;;;;;11.73;4.85;;;32.20;83.40;;;;;;5092788;28;20039;-68
2023/08/04 07:23:02;;;;;;;10.57;4.25;;;32.50;82.50;;;;;;5092579;28;20047;-67
2023/08/04 07:26:07;;;;;;;10.70;4.05;;;32.60;81.30;;;;;;5092415;28;20059;-66
2023/08/04 07:29:10;;;;;;;22.80;5.00;;;32.80;81.30;;;;;;5092240;28;20416;-68
2023/08/04 07:32:14;;;;;;;11.75;4.30;;;33.00;80.00;;;;;;5092244;28;20070;-67
2023/08/04 07:35:18;;;;;;;8.85;4.30;;;33.30;79.50;;;;;;5092229;28;20043;-67
2023/08/04 07:38:23;;;;;;;14.38;4.72;;;33.60;79.10;;;;;;5092314;28;20046;-67
2023/08/04 07:41:29;;;;;;;31.70;6.43;;;33.80;78.00;;;;;;5092042;28;20043;-69
2023/08/04 07:44:36;;;;;;;33.08;6.03;;;33.80;78.60;;;;;;5092320;28;20047;-67
2023/08/04 07:47:40;;;;;;;17.48;5.25;;;34.00;78.50;;;;;;5092172;28;20547;-67
2023/08/04 07:50:46;;;;;;;15.02;5.10;;;34.10;77.70;;;;;;5091780;28;20043;-67
2023/08/04 07:53:51;;;;;;;48.38;7.15;;;34.10;78.10;;;;;;5091309;28;20083;-67
2023/08/04 07:56:55;;;;;;;16.70;5.82;;;34.20;78.40;;;;;;5092022;28;20510;-67
2023/08/04 07:59:59;;;;;;;14.98;5.10;;;34.30;77.70;;;;;;5091165;28;20051;-67
2023/08/04 08:03:03;;;;;;;10.85;5.25;;;34.20;77.60;;;;;;5091717;28;20119;-67
2023/08/04 08:06:08;;;;;;;11.40;5.22;;;34.90;76.90;;;;;;5091843;28;20043;-66
2023/08/04 08:09:12;;;;;;;17.13;5.40;;;35.70;75.50;;;;;;5090867;28;20403;-66
2023/08/04 08:12:16;;;;;;;20.00;6.88;;;35.70;74.50;;;;;;5090091;28;20043;-68
2023/08/04 08:15:20;;;;;;;14.80;5.45;;;35.00;75.20;;;;;;5089864;28;20491;-68
2023/08/04 08:18:23;;;;;;;22.77;5.93;;;34.60;76.60;;;;;;5089818;28;20495;-67
2023/08/04 08:21:27;;;;;;;20.52;5.65;;;34.60;77.00;;;;;;5090541;28;20051;-68
2023/08/04 08:24:31;;;;;;;50.63;7.13;;;34.60;77.30;;;;;;5090261;28;20052;-67
2023/08/04 08:27:35;;;;;;;8.45;4.30;;;34.60;76.70;;;;;;5090178;28;20173;-67
2023/08/04 08:30:39;;;;;;;20.50;5.68;;;34.80;76.40;;;;;;5090457;28;20035;-68
2023/08/04 08:33:42;;;;;;;16.98;4.78;;;34.90;75.70;;;;;;5090909;28;20047;-67
2023/08/04 08:36:47;;;;;;;19.52;5.38;;;34.90;75.10;;;;;;5090795;28;20035;-68
2023/08/04 08:39:51;;;;;;;9.00;4.95;;;34.90;74.90;;;;;;5090026;28;20435;-68
2023/08/04 08:42:56;;;;;;;19.25;5.43;;;34.90;75.70;;;;;;5091231;28;20047;-67
2023/08/04 08:46:02;;;;;;;22.83;5.70;;;35.00;75.80;;;;;;5091176;28;20043;-67
2023/08/04 08:49:06;;;;;;;16.08;4.85;;;35.00;75.00;;;;;;5091202;28;20047;-67
2023/08/04 08:52:10;;;;;;;14.32;5.68;;;34.90;74.90;;;;;;5090957;28;20043;-67
2023/08/04 08:55:15;;;;;;;9.98;4.72;;;34.70;75.20;;;;;;5091459;28;20483;-67
2023/08/04 08:58:20;;;;;;;15.68;5.28;;;34.70;76.40;;;;;;5091132;28;20051;-68
2023/08/04 09:01:24;;;;;;;18.35;6.20;;;34.60;75.40;;;;;;5090006;28;20039;-67
2023/08/04 09:04:37;;;;;;;26.38;6.40;;;34.60;75.60;;;;;;5090973;28;20510;-67
2023/08/04 09:07:41;;;;;;;18.35;4.88;;;34.50;75.30;;;;;;5089843;28;20055;-68
2023/08/04 09:10:47;;;;;;;9.25;4.95;;;34.50;72.90;;;;;;5091165;28;20043;-67
2023/08/04 09:13:50;;;;;;;10.32;5.05;;;34.30;71.80;;;;;;5095347;28;20059;-66
2023/08/04 09:16:54;;;;;;;10.60;4.63;;;34.10;73.00;;;;;;5095324;28;20084;-66
2023/08/04 09:20:00;;;;;;;13.00;5.15;;;34.30;72.30;;;;;;5094270;28;20047;-67
2023/08/04 09:23:10;;;;;;;19.40;5.30;;;34.40;70.90;;;;;;5094832;28;20043;-67
2023/08/04 09:26:14;;;;;;;7.50;4.15;;;34.50;70.60;;;;;;5094728;28;20523;-67
2023/08/04 09:29:19;;;;;;;13.98;5.30;;;34.60;70.30;;;;;;5094598;28;20043;-68
2023/08/04 09:32:22;;;;;;;13.68;5.55;;;34.70;71.30;;;;;;5094780;28;20043;-67
2023/08/04 09:35:26;;;;;;;13.25;5.13;;;34.60;70.90;;;;;;5094745;28;20055;-67
2023/08/04 09:38:31;;;;;;;18.77;5.43;;;34.60;71.60;;;;;;5093844;28;20047;-68
2023/08/04 09:41:40;;;;;;;16.67;5.25;;;34.70;72.80;;;;;;5094171;28;20047;-69
2023/08/04 09:44:51;;;;;;;13.35;5.70;;;34.60;73.70;;;;;;5094171;28;20153;-64
2023/08/04 09:47:55;;;;;;;14.95;5.50;;;35.00;73.90;;;;;;5094089;28;20411;-66
2023/08/04 09:51:14;;;;;;;13.80;5.72;;;36.30;72.00;;;;;;5094208;28;20494;-68
2023/08/04 09:54:18;;;;;;;15.73;5.95;;;37.10;71.00;;;;;;5094225;28;20467;-67
2023/08/04 09:57:23;;;;;;;29.23;6.43;;;38.20;69.00;;;;;;5094198;28;20039;-68
2023/08/04 10:00:27;;;;;;;27.40;6.10;;;38.60;68.50;;;;;;5094713;28;20047;-67
2023/08/04 10:03:38;;;;;;;22.80;6.47;;;38.90;69.50;;;;;;5094150;28;20498;-68
2023/08/04 10:06:43;;;;;;;15.55;5.60;;;38.50;69.60;;;;;;5093754;28;20059;-65
2023/08/04 10:09:48;;;;;;;22.27;6.68;;;38.40;70.20;;;;;;5093533;28;20050;-65
2023/08/04 10:12:52;;;;;;;18.27;6.90;;;38.60;69.90;;;;;;5093214;28;20395;-69
2023/08/04 10:15:57;;;;;;;12.52;6.45;;;39.00;69.90;;;;;;5093229;28;20047;-72
2023/08/04 10:19:03;;;;;;;19.02;6.10;;;39.20;69.10;;;;;;5093810;28;20047;-70
2023/08/04 10:22:11;;;;;;;21.63;6.88;;;39.40;68.30;;;;;;5093518;28;20581;-68
2023/08/04 10:25:16;;;;;;;30.02;6.80;;;39.40;68.80;;;;;;5093621;28;20051;-67
2023/08/04 10:28:21;;;;;;;16.50;6.15;;;39.40;68.80;;;;;;5093726;28;20047;-66
2023/08/04 10:31:42;;;;;;;29.60;7.30;;;39.50;68.50;;;;;;5093574;28;20039;-66
2023/08/04 10:34:50;;;;;;;13.23;5.70;;;39.30;68.30;;;;;;5093947;28;20039;-67
2023/08/04 10:37:59;;;;;;;16.45;5.40;;;39.20;69.60;;;;;;5093892;28;20047;-66
2023/08/04 10:41:06;;;;;;;19.13;6.43;;;39.20;69.50;;;;;;5093554;28;20039;-68
2023/08/04 10:44:10;;;;;;;16.70;5.95;;;39.40;69.40;;;;;;5093407;28;20127;-68
2023/08/04 10:47:15;;;;;;;17.90;6.40;;;39.50;68.80;;;;;;5093017;28;20058;-67
2023/08/04 10:50:19;;;;;;;11.73;6.10;;;39.60;68.40;;;;;;5093547;28;20043;-68
2023/08/04 10:53:23;;;;;;;18.05;6.32;;;39.60;68.40;;;;;;5092793;28;20043;-66
2023/08/04 10:56:27;;;;;;;20.92;6.18;;;39.20;68.90;;;;;;5093142;28;20043;-67
2023/08/04 10:59:31;;;;;;;20.98;6.03;;;38.60;69.90;;;;;;5091608;28;20055;-68
2023/08/04 11:02:36;;;;;;;16.63;5.72;;;37.80;71.00;;;;;;5092882;28;20051;-68
2023/08/04 11:05:41;;;;;;;18.60;5.65;;;37.20;72.10;;;;;;5092882;28;20043;-68
2023/08/04 11:08:45;;;;;;;13.25;6.07;;;36.90;73.00;;;;;;5092958;28;20051;-68
2023/08/04 11:11:49;;;;;;;16.27;6.13;;;36.50;73.20;;;;;;5092551;28;20051;-67
2023/08/04 11:14:53;;;;;;;20.88;6.35;;;36.10;73.10;;;;;;5091623;28;20043;-67
2023/08/04 11:17:57;;;;;;;10.98;6.22;;;36.00;73.80;;;;;;5092555;28;20047;-68
2023/08/04 11:21:02;;;;;;;12.57;5.70;;;35.80;74.50;;;;;;5091440;28;20102;-67
2023/08/04 11:24:09;;;;;;;26.13;7.15;;;35.70;74.20;;;;;;5093048;28;20047;-68
2023/08/04 11:27:14;;;;;;;15.73;6.15;;;35.70;73.80;;;;;;5092183;28;20118;-66
2023/08/04 11:30:18;;;;;;;12.68;5.97;;;36.20;73.70;;;;;;5092529;28;20388;-66
2023/08/04 11:33:23;;;;;;;18.35;6.63;;;37.30;70.70;;;;;;5091788;28;20051;-66
2023/08/04 11:36:27;;;;;;;17.65;5.72;;;38.50;69.10;;;;;;5092486;28;20051;-69
2023/08/04 11:39:31;;;;;;;23.92;6.78;;;38.70;67.20;;;;;;5092573;28;20099;-67
2023/08/04 11:42:37;;;;;;;13.18;5.45;;;38.80;66.60;;;;;;5092132;28;20396;-67
2023/08/04 11:45:47;;;;;;;11.70;5.35;;;38.80;67.30;;;;;;5092412;28;20039;-70
2023/08/04 11:49:06;;;;;;;17.55;5.82;;;38.90;66.90;;;;;;5092393;28;20059;-66
2023/08/04 11:52:11;;;;;;;13.15;5.32;;;39.00;64.60;;;;;;5092401;28;20071;-67
2023/08/04 11:55:15;;;;;;;10.57;5.55;;;39.10;65.00;;;;;;5091857;28;20110;-66
2023/08/04 11:58:40;;;;;;;37.58;6.90;;;38.90;64.40;;;;;;5091780;28;20043;-67
2023/08/04 12:01:44;;;;;;;13.75;5.20;;;38.80;64.00;;;;;;5091145;28;20051;-66
2023/08/04 12:05:11;;;;;;;9.77;4.80;;;38.60;64.60;;;;;;5091858;28;20384;-67
2023/08/04 12:08:15;;;;;;;10.95;4.88;;;38.70;64.40;;;;;;5091783;28;20051;-68
2023/08/04 12:11:20;;;;;;;11.32;4.70;;;38.00;65.70;;;;;;5091646;28;20052;-66
2023/08/04 12:14:25;;;;;;;14.02;5.00;;;37.20;67.10;;;;;;5091607;28;20039;-66
2023/08/04 12:17:42;;;;;;;7.53;4.47;;;36.70;67.90;;;;;;5090941;28;20396;-68
2023/08/04 12:20:46;;;;;;;11.07;4.85;;;36.30;68.30;;;;;;5091557;28;20424;-66
2023/08/04 12:23:50;;;;;;;14.60;5.40;;;36.00;69.40;;;;;;5091274;28;20047;-66
2023/08/04 12:26:54;;;;;;;9.38;4.90;;;35.90;69.40;;;;;;5091133;28;20067;-67
2023/08/04 12:29:58;;;;;;;7.88;4.40;;;35.80;70.10;;;;;;5091358;28;20063;-66
2023/08/04 12:33:02;;;;;;;18.45;4.93;;;35.70;69.90;;;;;;5091423;28;20047;-68
2023/08/04 12:36:06;;;;;;;8.30;4.25;;;35.50;70.80;;;;;;5091911;28;20047;-66
2023/08/04 12:39:10;;;;;;;10.10;4.60;;;35.30;71.40;;;;;;5091220;28;20051;-66
2023/08/04 12:42:14;;;;;;;7.85;4.25;;;35.20;70.70;;;;;;5090413;28;20494;-66
2023/08/04 12:45:17;;;;;;;6.65;3.83;;;35.00;66.70;;;;;;5090249;28;20046;-67
2023/08/04 12:48:21;;;;;;;8.23;4.07;;;34.90;67.30;;;;;;5090881;28;20506;-66
2023/08/04 12:51:26;;;;;;;9.07;4.25;;;34.90;68.20;;;;;;5090778;28;20492;-67
2023/08/04 12:54:30;;;;;;;12.70;4.60;;;35.00;69.60;;;;;;5090982;28;20043;-66
2023/08/04 12:57:34;;;;;;;6.10;4.43;;;35.00;70.80;;;;;;5090891;28;20423;-66
2023/08/04 13:00:38;;;;;;;14.52;4.57;;;35.00;70.90;;;;;;5091148;28;20058;-68
2023/08/04 13:03:42;;;;;;;6.82;4.40;;;35.00;71.00;;;;;;5090962;28;20338;-66
2023/08/04 13:06:47;;;;;;;9.45;4.00;;;34.90;71.10;;;;;;5090854;28;20043;-67
2023/08/04 13:09:51;;;;;;;10.45;4.38;;;35.00;70.80;;;;;;5091041;28;20039;-67
2023/08/04 13:12:55;;;;;;;17.98;4.72;;;34.90;69.60;;;;;;5090986;28;20035;-67
2023/08/04 13:15:59;;;;;;;12.80;4.07;;;34.90;69.50;;;;;;5090089;28;20042;-67
2023/08/04 13:19:04;;;;;;;5.63;3.60;;;34.80;68.30;;;;;;5090594;28;20043;-67
2023/08/04 13:22:07;;;;;;;11.15;4.13;;;34.80;68.60;;;;;;5090675;28;20043;-67
2023/08/04 13:25:11;;;;;;;18.13;4.35;;;34.70;68.00;;;;;;5090529;28;20039;-67
2023/08/04 13:28:15;;;;;;;6.93;3.47;;;34.70;68.10;;;;;;5090967;28;20074;-68
2023/08/04 13:31:19;;;;;;;17.05;3.58;;;34.60;67.40;;;;;;5090950;28;20043;-66
2023/08/04 13:34:23;;;;;;;11.85;3.80;;;34.50;66.50;;;;;;5090647;28;20043;-67
2023/08/04 13:37:27;;;;;;;23.00;4.90;;;34.50;66.80;;;;;;5089751;28;20035;-66
2023/08/04 13:40:31;;;;;;;7.13;3.28;;;34.40;65.40;;;;;;5090936;28;20059;-67
2023/08/04 13:43:35;;;;;;;12.18;3.78;;;34.40;65.60;;;;;;5090505;28;20047;-67
2023/08/04 13:46:39;;;;;;;8.60;3.72;;;34.30;64.50;;;;;;5090385;28;20507;-66
2023/08/04 13:49:43;;;;;;;10.10;3.83;;;34.30;64.10;;;;;;5090636;28;20048;-66
2023/08/04 13:52:47;;;;;;;6.80;3.75;;;34.20;63.80;;;;;;5089334;28;20071;-66
2023/08/04 13:55:51;;;;;;;11.13;3.22;;;34.20;64.40;;;;;;5089635;28;20051;-67
2023/08/04 13:58:54;;;;;;;19.80;3.92;;;34.80;64.20;;;;;;5094140;28;20047;-66
2023/08/04 14:01:59;;;;;;;16.83;4.20;;;36.00;63.30;;;;;;5094138;28;20062;-66
2023/08/04 14:05:03;;;;;;;22.35;4.30;;;36.40;62.90;;;;;;5094392;28;20498;-68
2023/08/04 14:08:06;;;;;;;17.08;3.92;;;37.10;61.70;;;;;;5093755;28;20051;-67
2023/08/04 14:11:10;;;;;;;9.98;3.95;;;37.10;62.80;;;;;;5093814;28;20043;-68
2023/08/04 14:14:14;;;;;;;25.83;4.82;;;36.90;63.20;;;;;;5094005;28;20055;-66
2023/08/04 14:17:18;;;;;;;18.65;3.90;;;36.80;63.20;;;;;;5093824;28;20039;-67
2023/08/04 14:20:22;;;;;;;16.52;3.90;;;36.60;62.80;;;;;;5094111;28;20047;-66
2023/08/04 14:23:26;;;;;;;13.50;3.47;;;36.60;63.50;;;;;;5093883;28;20134;-66
2023/08/04 14:26:30;;;;;;;15.30;3.72;;;36.40;62.50;;;;;;5093232;28;20063;-66
2023/08/04 14:29:34;;;;;;;12.02;3.40;;;36.40;62.90;;;;;;5093414;28;20057;-67
2023/08/04 14:32:38;;;;;;;25.95;5.00;;;35.80;62.20;;;;;;5093641;28;20065;-68
2023/08/04 14:35:42;;;;;;;14.75;3.67;;;35.30;62.40;;;;;;5093564;28;20055;-67
2023/08/04 14:38:46;;;;;;;32.15;4.40;;;34.80;63.80;;;;;;5093376;28;20503;-67
2023/08/04 14:41:49;;;;;;;12.73;3.00;;;34.40;64.20;;;;;;5093566;28;20055;-68
2023/08/04 14:44:53;;;;;;;19.67;3.90;;;34.10;64.60;;;;;;5093319;28;20047;-67
2023/08/04 14:47:57;;;;;;;14.88;3.65;;;33.90;64.90;;;;;;5092093;28;20206;-67
2023/08/04 14:51:01;;;;;;;9.63;3.35;;;33.80;66.50;;;;;;5092897;28;20209;-67
2023/08/04 14:54:05;;;;;;;10.10;3.08;;;33.60;67.50;;;;;;5093278;28;20063;-68
2023/08/04 14:57:09;;;;;;;17.70;3.92;;;33.60;68.10;;;;;;5092527;28;20047;-69
2023/08/04 15:00:14;;;;;;;15.57;3.67;;;33.50;68.60;;;;;;5092907;28;20043;-68
2023/08/04 15:03:18;;;;;;;18.67;4.55;;;33.40;69.80;;;;;;5093028;28;20055;-68
2023/08/04 15:06:22;;;;;;;18.90;4.55;;;33.30;70.00;;;;;;5092562;28;20058;-69
2023/08/04 15:09:25;;;;;;;10.50;3.50;;;33.30;68.90;;;;;;5090927;28;20365;-68
2023/08/04 15:12:29;;;;;;;28.08;4.10;;;33.30;69.80;;;;;;5093016;28;20047;-68
2023/08/04 15:15:33;;;;;;;27.15;4.25;;;33.20;70.40;;;;;;5092937;28;20043;-67
2023/08/04 15:18:37;;;;;;;11.77;4.65;;;33.10;70.30;;;;;;5092602;28;20043;-68
2023/08/04 15:21:41;;;;;;;18.65;4.00;;;33.00;71.70;;;;;;5092313;28;20043;-68
2023/08/04 15:24:45;;;;;;;31.65;4.50;;;32.90;71.90;;;;;;5092849;28;20054;-68
2023/08/04 15:27:52;;;;;;;18.90;4.97;;;32.80;72.20;;;;;;5092590;28;20051;-68
2023/08/04 15:31:07;;;;;;;19.23;4.40;;;32.80;73.00;;;;;;5092364;28;20039;-68
2023/08/04 15:34:11;;;;;;;14.40;4.30;;;32.70;73.70;;;;;;5092220;28;20051;-67
2023/08/04 15:37:15;;;;;;;12.27;4.15;;;32.70;74.60;;;;;;5092210;28;20039;-67
2023/08/04 15:40:19;;;;;;;13.23;3.67;;;32.60;74.90;;;;;;5091899;28;20043;-68
2023/08/04 15:43:23;;;;;;;36.50;5.10;;;32.60;74.60;;;;;;5092071;28;20047;-68
2023/08/04 15:46:27;;;;;;;23.63;4.10;;;32.60;74.70;;;;;;5092124;28;20047;-68
2023/08/04 15:49:31;;;;;;;11.90;4.55;;;32.60;75.60;;;;;;5091691;28;20059;-68